Time;durP1;ratioP1;P1;durP2;ratioP2;P2;SDS_P1;SDS_P2;PMS_P1;PMS_P2;Temp;Humidity;BMP_temperature;BMP_pressure;BME280_temperature;BME280_humidity;BME280_pressure;Samples;Min_cycle;Max_cycle;Signal;HPM_P1;HPM_P2
2022/05/16 00:02:05;;;;;;;;;4.50;3.75;;;;;21.05;44.78;100765.53;4906284;28;48035;-49
2022/05/16 00:04:31;;;;;;;;;3.00;3.00;;;;;21.05;45.39;100764.69;4923333;28;45377;-48
2022/05/16 00:06:56;;;;;;;;;4.75;3.50;;;;;21.04;45.52;100771.84;4923687;28;45322;-48
2022/05/16 00:09:21;;;;;;;;;3.00;3.00;;;;;21.03;45.40;100772.78;4923154;28;45502;-49
2022/05/16 00:11:47;;;;;;;;;4.25;3.75;;;;;21.03;45.68;100778.13;4906281;28;46942;-49
2022/05/16 00:14:12;;;;;;;;;5.00;3.75;;;;;21.04;45.74;100782.53;4923366;28;45209;-48
2022/05/16 00:16:39;;;;;;;;;3.75;3.75;;;;;21.04;45.25;100784.34;4923507;28;45254;-45
2022/05/16 00:19:04;;;;;;;;;3.75;3.75;;;;;21.01;45.46;100793.38;4923311;28;45282;-46
2022/05/16 00:21:31;;;;;;;;;3.00;3.00;;;;;20.98;45.47;100785.56;4922581;28;46199;-48
2022/05/16 00:23:57;;;;;;;;;6.75;6.00;;;;;20.99;45.70;100781.91;4923296;28;45465;-45
2022/05/16 00:26:22;;;;;;;;;3.00;3.00;;;;;20.97;46.00;100788.28;4906148;28;45550;-46
2022/05/16 00:28:47;;;;;;;;;5.00;4.00;;;;;20.92;45.59;100773.41;4923317;28;45370;-48
2022/05/16 00:31:13;;;;;;;;;6.25;6.25;;;;;20.89;45.75;100791.41;4922951;28;46010;-50
2022/05/16 00:33:39;;;;;;;;;5.00;4.00;;;;;20.86;45.72;100794.25;4923037;28;45306;-49
2022/05/16 00:36:04;;;;;;;;;5.50;5.00;;;;;20.82;46.06;100774.88;4923209;28;45326;-45
2022/05/16 00:38:29;;;;;;;;;4.25;4.25;;;;;20.83;46.35;100773.06;4923249;28;45317;-48
2022/05/16 00:40:58;;;;;;;;;4.00;3.00;;;;;20.83;46.43;100781.94;4922887;28;45434;-48
2022/05/16 00:43:44;;;;;;;;;5.00;5.00;;;;;20.81;46.46;100786.50;4923079;28;45237;-46
2022/05/16 00:46:10;;;;;;;;;4.50;4.25;;;;;20.83;46.02;100783.75;4923143;28;45288;-47
2022/05/16 00:48:36;;;;;;;;;6.00;5.00;;;;;20.80;46.20;100786.59;4922861;28;45249;-48
2022/05/16 00:51:02;;;;;;;;;5.50;3.50;;;;;20.82;46.38;100796.25;4922496;28;45328;-45
2022/05/16 00:53:29;;;;;;;;;8.25;6.00;;;;;20.82;46.77;100784.69;4922820;28;45329;-47
2022/05/16 00:55:54;;;;;;;;;5.25;5.25;;;;;20.81;46.11;100783.00;4922926;28;45507;-50
2022/05/16 00:58:20;;;;;;;;;4.00;3.50;;;;;20.82;46.75;100782.00;4922672;28;45455;-50
2022/05/16 01:00:47;;;;;;;;;6.00;4.00;;;;;20.82;46.13;100784.69;4922638;28;46168;-50
2022/05/16 01:06:00;;;;;;;;;4.50;4.00;;;;;20.82;46.30;100779.34;4922493;28;45234;-48
2022/05/16 01:08:28;;;;;;;;;5.75;5.75;;;;;20.81;46.23;100783.00;4922642;28;45327;-47
2022/05/16 01:10:58;;;;;;;;;5.75;5.50;;;;;20.79;46.77;100769.69;4922292;28;45474;-49
2022/05/16 01:13:29;;;;;;;;;6.00;4.00;;;;;20.77;46.53;100764.44;4922784;28;45250;-48
2022/05/16 01:15:56;;;;;;;;;5.50;5.00;;;;;20.75;46.47;100752.13;4905492;28;45386;-50
2022/05/16 01:18:23;;;;;;;;;3.75;3.25;;;;;20.72;46.21;100763.84;4922651;28;45309;-46
2022/05/16 01:21:14;;;;;;;;;4.75;4.25;;;;;20.71;46.68;100761.28;4921771;28;45757;-47
2022/05/16 01:24:07;;;;;;;;;4.75;4.00;;;;;20.69;46.78;100760.47;4922544;28;45264;-48
2022/05/16 01:26:33;;;;;;;;;4.00;4.00;;;;;20.65;46.39;100761.59;4921892;28;45313;-47
2022/05/16 01:28:58;;;;;;;;;4.25;4.25;;;;;20.54;46.72;100754.16;4922350;28;45500;-48
2022/05/16 01:31:24;;;;;;;;;3.25;3.25;;;;;20.59;46.29;100769.00;4922263;28;45487;-47
2022/05/16 01:33:50;;;;;;;;;4.75;4.75;;;;;20.57;46.41;100776.22;4922258;28;45487;-50
2022/05/16 01:36:16;;;;;;;;;6.50;6.50;;;;;20.53;46.36;100780.00;4922372;28;45473;-46
2022/05/16 01:38:41;;;;;;;;;6.50;6.25;;;;;20.51;46.99;100778.38;4922399;28;45503;-48
2022/05/16 01:41:13;;;;;;;;;7.25;6.00;;;;;20.46;47.03;100790.19;4922187;28;45456;-47
2022/05/16 01:43:43;;;;;;;;;6.75;5.75;;;;;20.43;47.09;100793.00;4922235;28;45384;-48
2022/05/16 01:46:10;;;;;;;;;7.00;4.25;;;;;20.39;47.07;100785.22;4922380;28;45230;-49
2022/05/16 01:48:36;;;;;;;;;5.25;2.75;;;;;20.37;47.14;100795.16;4922205;28;45162;-48
2022/05/16 01:51:05;;;;;;;;;5.00;4.25;;;;;20.30;46.64;100774.13;4904834;28;45277;-47
2022/05/16 01:53:31;;;;;;;;;7.00;4.25;;;;;20.29;47.08;100782.22;4922010;28;45456;-48
2022/05/16 01:55:57;;;;;;;;;4.00;4.00;;;;;20.22;47.28;100786.16;4922187;28;45315;-46
2022/05/16 01:58:23;;;;;;;;;3.75;3.75;;;;;20.19;46.96;100792.53;4922147;28;45238;-48
2022/05/16 02:00:50;;;;;;;;;6.50;6.50;;;;;20.16;47.62;100787.34;4904747;28;46141;-47
2022/05/16 02:03:16;;;;;;;;;5.25;4.00;;;;;20.13;47.06;100795.53;4921893;28;45229;-46
2022/05/16 02:05:43;;;;;;;;;8.25;8.25;;;;;20.08;47.59;100795.75;4921939;28;45344;-45
2022/05/16 02:08:09;;;;;;;;;9.50;7.25;;;;;20.03;47.45;100792.47;4908695;28;45727;-48
2022/05/16 02:10:35;;;;;;;;;9.75;9.50;;;;;20.02;47.39;100805.91;4921620;28;46428;-48
2022/05/16 02:13:03;;;;;;;;;6.75;6.00;;;;;19.96;47.32;100791.97;4921878;28;45347;-46
2022/05/16 02:15:31;;;;;;;;;8.50;8.00;;;;;19.96;47.80;100793.75;4922060;28;45308;-48
2022/05/16 02:17:57;;;;;;;;;9.25;8.00;;;;;19.93;47.48;100789.44;4923694;28;45190;-47
2022/05/16 02:20:23;;;;;;;;;7.25;5.75;;;;;19.91;47.73;100786.00;4924619;28;46133;-47
2022/05/16 02:25:38;;;;;;;;;10.00;8.75;;;;;19.91;47.62;100785.13;4924962;28;45325;-50
2022/05/16 02:28:05;;;;;;;;;8.75;6.00;;;;;19.92;48.17;100787.72;4925228;28;45440;-49
2022/05/16 02:30:32;;;;;;;;;9.00;9.00;;;;;19.91;48.27;100783.34;4924821;28;45182;-46
2022/05/16 02:32:57;;;;;;;;;11.50;8.25;;;;;19.91;48.01;100794.00;4924994;28;45409;-47
2022/05/16 02:35:23;;;;;;;;;9.25;9.25;;;;;19.90;48.26;100791.41;4924744;28;46556;-47
2022/05/16 02:37:49;;;;;;;;;7.25;7.00;;;;;19.89;48.55;100793.22;4925100;28;45330;-47
2022/05/16 02:40:15;;;;;;;;;10.00;10.00;;;;;19.89;48.01;100787.88;4924459;28;45902;-48
2022/05/16 02:42:40;;;;;;;;;10.75;9.75;;;;;19.87;48.56;100795.09;4924874;28;45294;-47
2022/05/16 02:45:07;;;;;;;;;9.00;8.25;;;;;19.87;48.30;100788.91;4924911;28;45318;-46
2022/05/16 02:47:33;;;;;;;;;6.75;6.75;;;;;19.85;48.75;100794.31;4924924;28;45225;-46
2022/05/16 02:49:58;;;;;;;;;10.25;8.00;;;;;19.83;48.83;100800.69;4907084;28;46016;-47
2022/05/16 02:52:23;;;;;;;;;10.25;9.25;;;;;19.81;48.76;100798.91;4924825;28;45277;-45
2022/05/16 02:54:51;;;;;;;;;7.25;7.25;;;;;19.80;48.79;100805.19;4924742;28;45371;-45
2022/05/16 02:57:16;;;;;;;;;8.25;8.25;;;;;19.79;49.08;100800.78;4924830;28;45218;-47
2022/05/16 02:59:41;;;;;;;;;9.75;9.75;;;;;19.77;48.84;100802.69;4924263;28;46033;-45
2022/05/16 03:02:10;;;;;;;;;9.00;9.00;;;;;19.76;49.28;100794.75;4924713;28;45154;-48
2022/05/16 03:04:36;;;;;;;;;8.75;8.75;;;;;19.74;48.90;100797.50;4924503;28;45344;-50
2022/05/16 03:07:02;;;;;;;;;9.00;8.50;;;;;19.75;48.97;100799.22;4924489;28;45254;-48
2022/05/16 03:09:29;;;;;;;;;12.00;12.00;;;;;19.74;49.02;100797.50;4923888;28;47735;-47
2022/05/16 03:11:54;;;;;;;;;8.00;8.00;;;;;19.74;49.26;100792.16;4907280;28;46314;-47
2022/05/16 03:14:20;;;;;;;;;9.75;9.00;;;;;19.73;49.15;100790.44;4924354;28;45325;-46
2022/05/16 03:16:46;;;;;;;;;11.50;10.00;;;;;19.77;49.17;100793.81;4924496;28;45575;-47
2022/05/16 03:19:11;;;;;;;;;15.00;15.00;;;;;19.74;49.25;100794.84;4923682;28;45464;-50
2022/05/16 03:21:38;;;;;;;;;11.50;9.50;;;;;19.77;49.57;100805.34;4924276;28;45222;-46
2022/05/16 03:24:04;;;;;;;;;6.50;6.50;;;;;19.84;49.09;100826.41;4924345;28;45570;-50
2022/05/16 03:26:29;;;;;;;;;10.00;10.00;;;;;19.76;48.94;100814.28;4924035;28;45564;-49
2022/05/16 03:28:54;;;;;;;;;12.50;9.25;;;;;19.88;49.50;100831.47;4922840;28;45310;-50
2022/05/16 03:31:20;;;;;;;;;14.50;11.75;;;;;19.89;49.02;100838.53;4924125;28;45316;-48
2022/05/16 03:33:46;;;;;;;;;8.00;6.75;;;;;19.91;49.14;100838.44;4924206;28;45317;-46
2022/05/16 03:36:12;;;;;;;;;12.50;9.75;;;;;19.94;49.00;100844.50;4923963;28;45648;-48
2022/05/16 03:41:22;;;;;;;;;11.50;11.50;;;;;19.97;49.21;100847.03;4923893;28;45487;-49
2022/05/16 03:43:49;;;;;;;;;12.00;10.75;;;;;19.97;49.52;100854.13;4923847;28;45243;-48
2022/05/16 03:46:15;;;;;;;;;11.25;11.25;;;;;19.96;49.24;100850.63;4923830;28;45307;-45
2022/05/16 03:48:40;;;;;;;;;13.50;12.25;;;;;19.97;49.49;100854.13;4923612;28;46176;-47
2022/05/16 03:51:09;;;;;;;;;9.50;9.00;;;;;19.97;49.27;100847.03;4923733;28;45221;-46
2022/05/16 03:53:36;;;;;;;;;12.25;10.50;;;;;19.98;49.35;100853.19;4923901;28;45367;-46
2022/05/16 03:56:03;;;;;;;;;12.75;11.25;;;;;19.95;49.45;100858.72;4923625;28;45328;-48
2022/05/16 03:58:28;;;;;;;;;14.75;10.75;;;;;19.95;49.43;100858.72;4906218;28;47165;-50
2022/05/16 04:00:54;;;;;;;;;14.25;12.50;;;;;19.95;49.59;100880.03;4923627;28;46136;-48
2022/05/16 04:03:19;;;;;;;;;16.25;12.50;;;;;19.94;49.77;100875.66;4923661;28;45309;-46
2022/05/16 04:05:44;;;;;;;;;10.00;10.00;;;;;19.92;49.48;100873.06;4923611;28;45456;-45
2022/05/16 04:08:10;;;;;;;;;14.25;10.75;;;;;19.92;49.67;100873.06;4923313;28;46233;-46
2022/05/16 04:10:36;;;;;;;;;12.25;12.25;;;;;19.91;50.11;100874.00;4923429;28;45249;-46
2022/05/16 04:13:01;;;;;;;;;14.00;12.50;;;;;19.89;50.00;100880.34;4923487;28;45225;-49
2022/05/16 04:15:27;;;;;;;;;11.75;11.25;;;;;19.88;49.96;100881.28;4923602;28;45348;-48
2022/05/16 04:17:52;;;;;;;;;14.75;13.25;;;;;19.88;50.12;100883.97;4923267;28;45449;-48
2022/05/16 04:20:19;;;;;;;;;11.50;11.50;;;;;19.88;50.22;100890.16;4923056;28;45413;-50
2022/05/16 04:22:45;;;;;;;;;15.50;13.00;;;;;19.87;50.37;100893.75;4923318;28;45352;-50
2022/05/16 04:25:13;;;;;;;;;14.25;12.75;;;;;19.88;50.35;100899.97;4923067;28;45329;-48
2022/05/16 04:27:39;;;;;;;;;16.00;15.00;;;;;19.84;50.39;100895.72;4923162;28;45660;-48
2022/05/16 04:30:05;;;;;;;;;11.75;11.75;;;;;19.84;50.90;100907.25;4923029;28;45328;-46
2022/05/16 04:32:31;;;;;;;;;10.50;10.50;;;;;19.83;50.17;100910.84;4923080;28;45237;-49
2022/05/16 04:34:56;;;;;;;;;13.25;11.00;;;;;19.78;50.61;100915.50;4923001;28;45352;-48
2022/05/16 04:37:22;;;;;;;;;15.75;14.50;;;;;19.78;50.78;100915.50;4922927;28;47376;-48
2022/05/16 04:39:47;;;;;;;;;14.00;11.75;;;;;19.76;50.72;100930.72;4922580;28;45423;-47
2022/05/16 04:45:21;;;;;;;;;18.75;18.75;;;;;19.73;51.18;100926.41;4890426;28;45395;-47
2022/05/16 04:47:50;;;;;;;;;17.50;15.75;;;;;19.71;51.45;100941.63;4905790;28;46121;-49
2022/05/16 04:50:20;;;;;;;;;14.50;14.25;;;;;19.69;51.10;100945.31;4922528;28;45452;-47
2022/05/16 04:52:46;;;;;;;;;16.00;16.00;;;;;19.66;51.30;100951.66;4923043;28;45391;-49
2022/05/16 04:55:12;;;;;;;;;15.25;14.75;;;;;19.64;51.70;100961.53;4905433;28;45339;-49
2022/05/16 04:57:38;;;;;;;;;17.75;16.75;;;;;19.63;51.45;100975.78;4922677;28;45284;-47
2022/05/16 05:00:06;;;;;;;;;19.00;16.25;;;;;19.62;51.58;100984.72;4905383;28;45684;-45
2022/05/16 05:02:31;;;;;;;;;19.00;16.50;;;;;19.61;51.87;100991.84;4922898;28;45210;-44
2022/05/16 05:04:57;;;;;;;;;15.00;12.25;;;;;19.59;51.37;100990.22;4922425;28;45154;-44
2022/05/16 05:07:23;;;;;;;;;17.25;16.25;;;;;19.58;51.47;101004.47;4922629;28;46081;-43
2022/05/16 05:15:17;;;;;;;;;23.00;19.75;;;;;19.58;52.19;100999.13;4908078;28;45258;-47
2022/05/16 05:17:43;;;;;;;;;26.00;21.50;;;;;19.49;52.36;100985.28;4905169;28;48327;-43
2022/05/16 05:20:13;;;;;;;;;22.00;19.50;;;;;19.55;52.07;101000.16;4921962;28;45418;-45
2022/05/16 05:22:40;;;;;;;;;21.25;20.50;;;;;19.57;52.63;100997.41;4922561;28;45351;-48
2022/05/16 05:25:05;;;;;;;;;21.00;20.00;;;;;19.58;52.21;101005.31;4922246;28;45543;-45
2022/05/16 05:27:32;;;;;;;;;22.50;21.00;;;;;19.60;52.09;101010.59;4921853;28;45415;-46
2022/05/16 05:29:57;;;;;;;;;18.00;17.75;;;;;19.62;52.11;101024.69;4922440;28;45380;-47
2022/05/16 05:32:23;;;;;;;;;19.75;19.75;;;;;19.62;52.27;101038.91;4922334;28;45350;-45
2022/05/16 05:37:23;;;;;;;;;22.25;19.50;;;;;19.63;52.18;101045.09;5044346;23;45618;-46
2022/05/16 05:39:48;;;;;;;;;21.00;17.25;;;;;19.59;52.75;101051.50;4904764;28;45441;-45
2022/05/16 05:42:14;;;;;;;;;19.00;17.00;;;;;19.62;52.41;101064.69;4922223;28;45917;-44
2022/05/16 05:44:39;;;;;;;;;18.25;18.25;;;;;19.67;52.46;101069.81;4922173;28;45370;-42
2022/05/16 05:47:05;;;;;;;;;21.25;18.75;;;;;19.68;52.54;101058.22;4907169;28;46157;-44
2022/05/16 05:49:30;;;;;;;;;25.50;21.25;;;;;19.70;52.41;101059.88;4903157;29;45380;-44
2022/05/16 05:51:56;;;;;;;;;18.50;18.50;;;;;19.70;52.79;101058.97;4877110;29;45543;-45
2022/05/16 05:54:22;;;;;;;;;23.25;20.25;;;;;19.70;52.44;101075.84;4904061;29;45404;-46
2022/05/16 05:56:47;;;;;;;;;23.25;21.00;;;;;19.71;52.91;101079.38;4895560;28;45359;-45
2022/05/16 05:59:12;;;;;;;;;23.00;20.25;;;;;19.71;52.70;101080.25;4905120;28;45414;-46
2022/05/16 06:01:38;;;;;;;;;20.50;20.50;;;;;19.75;52.17;101081.84;4904721;28;45339;-47
2022/05/16 06:04:03;;;;;;;;;24.75;20.75;;;;;19.74;52.74;101093.44;4903173;29;45513;-48
2022/05/16 06:06:29;;;;;;;;;26.50;26.50;;;;;19.78;52.83;101086.16;4905107;28;46899;-48
2022/05/16 06:08:54;;;;;;;;;21.25;18.50;;;;;19.76;52.94;101093.34;4900644;28;45428;-46
2022/05/16 06:11:21;;;;;;;;;23.00;20.50;;;;;19.80;52.74;101101.13;4905917;29;45246;-46
2022/05/16 06:13:46;;;;;;;;;21.00;21.00;;;;;19.79;52.92;101098.56;4905887;29;45412;-46
2022/05/16 06:16:12;;;;;;;;;26.75;22.25;;;;;19.81;52.76;101102.03;4909977;28;46193;-49
2022/05/16 06:18:37;;;;;;;;;24.00;22.50;;;;;19.81;52.51;101108.22;4892926;29;45437;-46
2022/05/16 06:21:04;;;;;;;;;15.25;14.75;;;;;19.83;52.63;101117.97;4905482;28;45388;-47
2022/05/16 06:23:29;;;;;;;;;26.75;24.00;;;;;19.85;52.64;101106.31;4905562;29;45518;-48
2022/05/16 06:25:56;;;;;;;;;29.50;22.25;;;;;19.85;52.70;101108.97;4903328;28;45341;-46
2022/05/16 06:28:25;;;;;;;;;18.75;18.25;;;;;19.86;52.93;101115.16;4905669;29;45262;-50
2022/05/16 06:30:52;;;;;;;;;22.25;21.75;;;;;19.88;52.71;101110.63;4905548;28;45418;-47
2022/05/16 06:33:20;;;;;;;;;22.75;20.75;;;;;19.87;52.62;101122.22;4905573;28;45399;-49
2022/05/16 06:35:46;;;;;;;;;28.00;25.00;;;;;19.90;52.92;101127.41;4904609;28;47973;-47
2022/05/16 06:38:14;;;;;;;;;23.50;22.25;;;;;19.91;52.37;101129.13;4905438;29;45343;-47
2022/05/16 06:40:43;;;;;;;;;23.75;21.50;;;;;19.90;52.67;101130.06;4905353;29;45209;-48
2022/05/16 06:43:09;;;;;;;;;22.75;22.00;;;;;19.89;52.70;101131.03;4905640;29;45538;-48
2022/05/16 06:45:36;;;;;;;;;26.50;23.25;;;;;19.91;52.20;101146.00;4916516;28;45345;-47
2022/05/16 06:48:03;;;;;;;;;21.50;18.25;;;;;19.87;52.44;101149.75;4905533;29;45274;-47
2022/05/16 06:50:28;;;;;;;;;25.50;20.00;;;;;19.89;52.17;101161.22;4905459;29;45291;-47
2022/05/16 06:52:54;;;;;;;;;27.00;24.00;;;;;19.92;52.16;101166.41;4905222;28;45239;-49
2022/05/16 06:55:19;;;;;;;;;29.00;23.00;;;;;19.93;52.56;101175.28;4905421;29;46288;-49
2022/05/16 06:57:45;;;;;;;;;22.50;18.25;;;;;19.93;52.13;101178.78;4888299;29;45247;-48
2022/05/16 07:00:11;;;;;;;;;22.00;19.00;;;;;19.96;51.79;101178.66;4905692;29;45565;-47
2022/05/16 07:02:37;;;;;;;;;22.50;19.25;;;;;19.94;52.35;101174.34;4916417;28;45503;-45
2022/05/16 07:05:03;;;;;;;;;24.25;21.25;;;;;19.93;52.25;101194.78;4905017;29;46813;-44
2022/05/16 07:07:29;;;;;;;;;20.25;19.50;;;;;19.93;51.91;101196.59;4888117;29;45261;-45
2022/05/16 07:09:55;;;;;;;;;21.75;18.75;;;;;19.92;51.72;101200.19;4905448;29;45436;-49
2022/05/16 07:12:20;;;;;;;;;32.25;30.00;;;;;19.97;51.97;101215.06;4905212;29;45262;-46
2022/05/16 07:14:47;;;;;;;;;38.00;34.00;;;;;19.97;51.80;101212.41;4905190;28;45247;-48
2022/05/16 07:17:13;;;;;;;;;24.25;23.50;;;;;20.00;51.73;101219.41;4905266;29;45297;-47
2022/05/16 07:19:38;;;;;;;;;20.00;19.50;;;;;19.94;51.42;101201.00;4904900;29;45283;-48
2022/05/16 07:22:12;;;;;;;;;25.00;21.00;;;;;20.05;52.02;101225.38;4905236;28;45218;-46
2022/05/16 07:24:43;;;;;;;;;22.25;19.75;;;;;20.09;51.47;101213.63;4904892;28;46110;-50
2022/05/16 07:29:54;;;;;;;;;19.50;18.25;;;;;20.13;51.65;101231.22;4905073;29;45362;-49
2022/05/16 07:32:19;;;;;;;;;15.75;15.00;;;;;20.13;51.77;101228.53;4904941;29;45607;-48
2022/05/16 07:34:45;;;;;;;;;11.50;10.00;;;;;20.16;51.53;101235.53;4904609;29;45925;-46
2022/05/16 07:37:11;;;;;;;;;17.25;14.50;;;;;20.16;51.13;101234.69;4904689;29;45446;-48
2022/05/16 07:39:38;;;;;;;;;17.00;15.50;;;;;20.16;51.57;101248.88;4904900;29;45317;-48
2022/05/16 07:42:08;;;;;;;;;13.50;13.50;;;;;20.15;51.32;101247.16;4905004;29;45483;-45
2022/05/16 07:44:37;;;;;;;;;12.25;12.00;;;;;20.20;50.82;101241.59;4904743;29;46264;-45
2022/05/16 07:47:04;;;;;;;;;14.25;14.00;;;;;20.19;51.18;101240.75;4904634;29;45384;-47
2022/05/16 07:49:30;;;;;;;;;15.50;14.75;;;;;20.23;50.89;101260.16;4904562;29;45239;-50
2022/05/16 07:51:56;;;;;;;;;14.75;12.50;;;;;20.20;51.32;101252.25;4887659;29;45595;-48
2022/05/16 07:54:21;;;;;;;;;15.25;13.50;;;;;20.17;51.20;101255.94;4904148;29;46228;-50
2022/05/16 07:56:47;;;;;;;;;12.25;11.75;;;;;20.22;51.06;101255.75;4904796;29;45391;-47
2022/05/16 07:59:12;;;;;;;;;14.25;13.25;;;;;20.20;50.88;101268.28;4904675;29;45376;-47
2022/05/16 08:01:38;;;;;;;;;13.75;12.00;;;;;20.23;50.44;101270.81;4887710;29;45677;-48
2022/05/16 08:04:05;;;;;;;;;16.25;14.25;;;;;20.24;50.43;101251.22;4913316;28;45816;-49
2022/05/16 08:06:31;;;;;;;;;16.75;16.00;;;;;20.28;50.86;101266.97;4904524;29;45405;-47
2022/05/16 08:11:40;;;;;;;;;10.75;10.25;;;;;20.36;50.60;101271.09;4904587;29;45238;-50
2022/05/16 08:14:06;;;;;;;;;15.50;12.00;;;;;20.41;50.29;101272.59;4904032;29;45452;-48
2022/05/16 08:16:31;;;;;;;;;12.50;12.00;;;;;20.45;50.15;101274.22;4903780;29;45228;-48
2022/05/16 08:18:57;;;;;;;;;12.00;11.00;;;;;20.46;50.46;101272.41;4904146;29;45251;-49
2022/05/16 08:21:22;;;;;;;;;13.75;12.00;;;;;20.48;50.00;101272.31;4887405;29;45381;-48
2022/05/16 08:23:48;;;;;;;;;14.50;14.00;;;;;20.54;49.69;101280.03;4904085;29;46253;-50
2022/05/16 08:26:13;;;;;;;;;12.75;10.75;;;;;20.56;49.62;101272.84;4904194;29;45166;-47
2022/05/16 08:28:39;;;;;;;;;15.75;11.75;;;;;20.62;49.61;101281.41;4904252;28;45258;-49
2022/05/16 08:31:05;;;;;;;;;13.00;12.25;;;;;20.67;49.73;101286.53;4904409;29;45258;-46
2022/05/16 08:33:33;;;;;;;;;13.75;11.50;;;;;20.72;49.51;101286.34;4903925;29;45556;-48
2022/05/16 08:41:35;;;;;;;;;12.00;11.00;;;;;20.87;49.73;101296.28;4903858;29;45438;-48
2022/05/16 08:44:21;;;;;;;;;14.50;14.00;;;;;20.95;49.52;101309.25;4904082;29;45533;-48
2022/05/16 08:47:16;;;;;;;;;18.25;14.50;;;;;21.04;49.18;101297.25;4903707;29;45384;-50
2022/05/16 08:49:53;;;;;;;;;13.75;13.25;;;;;21.10;49.41;101299.63;4902819;29;45404;-49
2022/05/16 08:52:50;;;;;;;;;11.50;11.50;;;;;21.16;49.09;101302.00;4903719;29;45428;-49
2022/05/16 08:55:18;;;;;;;;;11.75;11.00;;;;;21.23;48.70;101302.53;4894036;29;46171;-50
2022/05/16 08:57:49;;;;;;;;;11.75;11.75;;;;;21.29;48.92;101291.53;4903708;29;45325;-51
2022/05/16 09:00:28;;;;;;;;;11.00;9.25;;;;;21.35;49.01;101312.63;4903890;29;45516;-48
2022/05/16 09:02:55;;;;;;;;;10.00;8.25;;;;;21.41;48.65;101304.28;4905544;28;45574;-47
2022/05/16 09:05:34;;;;;;;;;10.50;8.75;;;;;21.48;48.58;101302.16;4910065;28;46671;-50
2022/05/16 09:08:00;;;;;;;;;12.00;10.75;;;;;21.51;48.53;101301.13;4903535;29;45322;-47
2022/05/16 09:10:41;;;;;;;;;12.75;12.00;;;;;21.53;48.73;101318.81;4903591;29;45323;-51
2022/05/16 09:13:34;;;;;;;;;13.75;10.75;;;;;21.53;48.59;101318.81;4888214;29;45417;-49
2022/05/16 09:16:17;;;;;;;;;11.75;9.00;;;;;21.56;48.73;101325.88;4903598;29;46389;-51
2022/05/16 09:18:51;;;;;;;;;10.75;9.25;;;;;21.59;48.92;101331.06;4903293;29;45231;-50
2022/05/16 09:21:25;;;;;;;;;12.25;11.00;;;;;21.59;48.81;101336.41;4903624;29;45217;-51
2022/05/16 09:24:12;;;;;;;;;10.50;10.50;;;;;21.62;48.49;101343.41;4903417;29;45352;-48
2022/05/16 09:26:57;;;;;;;;;13.25;12.50;;;;;21.65;48.54;101349.47;4903204;29;46132;-46
2022/05/16 09:29:31;;;;;;;;;11.75;9.25;;;;;21.65;48.50;101341.44;4886358;29;45430;-50
2022/05/16 09:32:04;;;;;;;;;12.50;11.00;;;;;21.69;48.46;101344.84;4903304;29;45233;-48
2022/05/16 09:34:31;;;;;;;;;11.75;10.50;;;;;21.69;48.19;101348.34;4902960;29;45383;-48
2022/05/16 09:36:57;;;;;;;;;9.75;8.25;;;;;21.70;48.76;101354.59;4885913;29;47372;-45
2022/05/16 09:39:25;;;;;;;;;12.75;12.75;;;;;21.71;48.84;101353.63;4886088;29;45239;-50
2022/05/16 09:42:23;;;;;;;;;12.00;10.00;;;;;21.74;48.49;101340.97;4903148;29;45440;-47
2022/05/16 09:44:54;;;;;;;;;13.75;12.00;;;;;21.78;48.07;101347.03;4884705;29;45330;-45
2022/05/16 09:47:29;;;;;;;;;12.75;10.50;;;;;21.82;48.83;101356.59;4903002;28;46210;-46
2022/05/16 09:50:06;;;;;;;;;10.75;9.00;;;;;21.87;48.41;101348.34;4902817;29;45225;-46
2022/05/16 09:52:36;;;;;;;;;16.00;11.50;;;;;21.93;48.11;101356.06;4903159;29;45354;-48
2022/05/16 09:55:08;;;;;;;;;16.75;11.00;;;;;22.00;47.98;101356.59;4902964;29;45246;-46
2022/05/16 09:57:53;;;;;;;;;14.00;13.25;;;;;22.07;48.16;101353.53;4902764;29;45496;-46
2022/05/16 10:00:30;;;;;;;;;14.75;11.00;;;;;22.14;48.16;101359.41;4902917;29;45379;-50
2022/05/16 10:03:14;;;;;;;;;10.75;10.75;;;;;22.24;47.76;101363.31;4905433;28;45414;-46
2022/05/16 10:05:48;;;;;;;;;8.50;8.50;;;;;22.35;47.84;101357.41;4906637;28;45407;-47
2022/05/16 10:08:27;;;;;;;;;11.25;9.50;;;;;22.47;47.52;101365.75;4902733;29;46340;-46
2022/05/16 10:10:55;;;;;;;;;7.00;6.00;;;;;22.58;47.43;101368.69;4902671;29;45174;-49
2022/05/16 10:13:22;;;;;;;;;6.50;5.25;;;;;22.69;47.48;101371.66;4903147;29;45395;-50
2022/05/16 10:15:52;;;;;;;;;8.25;7.00;;;;;22.75;47.62;101374.94;4902665;29;45334;-50
2022/05/16 10:18:19;;;;;;;;;11.50;10.00;;;;;22.83;46.98;101378.03;4902865;29;46198;-46
2022/05/16 10:20:51;;;;;;;;;8.00;7.50;;;;;22.92;47.00;101390.06;4902527;29;45266;-48
2022/05/16 10:23:28;;;;;;;;;7.25;7.25;;;;;23.00;46.86;101379.78;4902814;29;45262;-46
2022/05/16 10:25:58;;;;;;;;;7.75;6.75;;;;;23.09;46.92;101387.28;4885557;29;45468;-51
2022/05/16 10:28:38;;;;;;;;;10.75;8.50;;;;;23.18;46.74;101388.63;4885717;29;48089;-47
2022/05/16 10:33:59;;;;;;;;;8.25;8.00;;;;;23.54;46.40;101395.50;4902577;29;45475;-48
2022/05/16 10:36:27;;;;;;;;;8.50;8.00;;;;;23.75;46.41;101397.84;4902358;29;45233;-48
2022/05/16 10:39:13;;;;;;;;;11.00;8.50;;;;;24.04;46.63;101389.88;4904229;29;46006;-46
2022/05/16 10:42:10;;;;;;;;;9.25;8.25;;;;;24.27;46.04;101399.22;4905606;29;45460;-51
2022/05/16 10:44:59;;;;;;;;;11.00;9.00;;;;;24.62;46.29;101394.34;4905820;29;45447;-47
2022/05/16 10:47:48;;;;;;;;;8.25;7.00;;;;;24.96;45.75;101402.94;4905765;29;45238;-51
2022/05/16 10:50:42;;;;;;;;;8.00;8.00;;;;;25.26;46.16;101391.16;4905389;28;45328;-48
2022/05/16 10:53:22;;;;;;;;;8.25;7.75;;;;;25.62;45.46;101402.28;4899927;29;45428;-50
2022/05/16 10:56:08;;;;;;;;;10.25;9.00;;;;;25.93;45.46;101390.28;4905591;29;45344;-47
2022/05/16 10:58:44;;;;;;;;;10.00;7.50;;;;;26.22;45.16;101391.94;4905488;29;45258;-48
2022/05/16 11:01:32;;;;;;;;;9.75;9.25;;;;;26.54;45.22;101381.56;4905208;29;45600;-47
2022/05/16 11:04:07;;;;;;;;;10.25;9.25;;;;;26.89;44.64;101394.38;4914107;28;45440;-45
2022/05/16 11:06:40;;;;;;;;;11.00;9.00;;;;;27.20;44.73;101392.06;4888574;29;45314;-49
2022/05/16 11:09:22;;;;;;;;;9.50;8.00;;;;;27.52;44.20;101399.63;4888754;29;45242;-47
2022/05/16 11:12:01;;;;;;;;;11.50;9.50;;;;;27.86;44.06;101388.94;4905584;29;46539;-46
2022/05/16 11:14:47;;;;;;;;;12.25;8.00;;;;;28.21;43.65;101400.69;4888328;29;45264;-47
2022/05/16 11:17:27;;;;;;;;;10.00;9.00;;;;;28.44;43.29;101387.19;4905480;29;45329;-47
2022/05/16 11:20:05;;;;;;;;;8.00;8.00;;;;;28.67;43.09;101391.63;4904857;29;45416;-48
2022/05/16 11:22:35;;;;;;;;;10.25;9.25;;;;;28.95;42.72;101383.97;4905240;29;46107;-48
2022/05/16 11:25:15;;;;;;;;;10.50;9.75;;;;;29.20;42.55;101387.34;4905039;29;45399;-48
2022/05/16 11:28:00;;;;;;;;;9.75;9.75;;;;;29.42;42.26;101381.03;4905127;29;45171;-49
2022/05/16 11:30:38;;;;;;;;;8.25;8.00;;;;;29.64;42.25;101376.50;4904972;29;45261;-45
2022/05/16 11:33:25;;;;;;;;;8.00;7.00;;;;;29.95;41.85;101388.28;4905052;29;46252;-48
2022/05/16 11:35:55;;;;;;;;;8.75;8.00;;;;;30.37;41.55;101383.78;4887366;29;46032;-48
2022/05/16 11:38:27;;;;;;;;;7.25;7.25;;;;;30.77;41.21;101381.09;4904950;29;45365;-48
2022/05/16 11:41:14;;;;;;;;;8.50;7.50;;;;;31.23;41.00;101380.63;4904761;29;45474;-45
2022/05/16 11:43:49;;;;;;;;;8.75;7.50;;;;;31.65;40.68;101385.81;4904768;29;45337;-49
2022/05/16 11:46:14;;;;;;;;;8.25;8.25;;;;;31.88;40.33;101383.59;4904726;29;45249;-46
2022/05/16 11:48:49;;;;;;;;;7.25;6.25;;;;;32.06;39.84;101386.44;4904911;29;45251;-47
2022/05/16 11:51:52;;;;;;;;;6.25;6.25;;;;;32.39;39.60;101386.91;4886741;29;45649;-46
2022/05/16 11:54:23;;;;;;;;;8.25;7.50;;;;;32.66;39.20;101374.31;4904325;29;45354;-49
2022/05/16 12:02:28;;;;;;;;;7.50;6.50;;;;;33.07;37.90;101382.13;4904603;29;45322;-51
2022/05/16 12:05:19;;;;;;;;;7.75;6.25;;;;;33.01;37.55;101378.16;4912980;28;46600;-48
2022/05/16 12:07:57;;;;;;;;;7.25;6.75;;;;;32.95;37.14;101373.31;4904635;29;45387;-47